• Join FlightAware (Why Join?)
  • Login
  • US Flag 
11:22AM EST


 

Airport Tracker/Info


-or-


 

Live Flight TrackerFlight Track Log ✈ DAL146 ✈ 21-May-2013 ✈ SCEL / SCL - KATL

Flight Track Log - Related Links

Times and Time Zones

All times are in EDT time to prevent confusion due to time zone crossing. See the DAL146 flight status page for this flight to view local times or setup timezone preferences in your user account.

Time Position Orientation Groundspeed Altitude Reporting Facility
EDT Latitude Longitude Course Direction KTS MPH feet Rate Location/Type
07:48PM -33.2743 -70.8069 352° North  Level FlightAware Approximate
07:49PM -33.1557 -70.8279 352° North  Level FlightAware Approximate
07:50PM -33.0371 -70.8489 352° North  Level FlightAware Approximate
07:51PM -32.9185 -70.8698 352° North  Level FlightAware Approximate
07:52PM -32.8018 -70.8903 352° North  Level FlightAware Approximate
07:53PM -32.6852 -70.9108 352° North  Level FlightAware Approximate
07:54PM -32.5686 -70.9312 352° North  Level FlightAware Approximate
07:55PM -32.4519 -70.9515 352° North  Level FlightAware Approximate
07:56PM -32.3353 -70.9718 352° North  Level FlightAware Approximate
07:57PM -32.2187 -70.9921 352° North  Level FlightAware Approximate
07:58PM -32.1020 -71.0123 352° North  Level FlightAware Approximate
07:59PM -31.9853 -71.0324 352° North  Level FlightAware Approximate
08:00PM -31.8617 -71.0539 351° North  Level FlightAware Approximate
08:01PM -31.7452 -71.0751 351° North  Level FlightAware Approximate
08:02PM -31.6287 -71.0962 351° North  Level FlightAware Approximate
08:03PM -31.5122 -71.1173 351° North  Level FlightAware Approximate
08:04PM -31.3957 -71.1383 351° North  Level FlightAware Approximate
08:05PM -31.2792 -71.1592 351° North  Level FlightAware Approximate
08:06PM -31.1598 -71.1807 351° North  Level FlightAware Approximate
08:07PM -31.0404 -71.2020 351° North  Level FlightAware Approximate
08:08PM -30.9211 -71.2233 351° North  Level FlightAware Approximate
08:09PM -30.8017 -71.2446 351° North  Level FlightAware Approximate
08:10PM -30.6823 -71.2658 351° North  Level FlightAware Approximate
08:11PM -30.5629 -71.2869 351° North  Level FlightAware Approximate
08:12PM -30.4436 -71.3080 351° North  Level FlightAware Approximate
08:13PM -30.3242 -71.3291 351° North  Level FlightAware Approximate
08:14PM -30.2048 -71.3501 351° North  Level FlightAware Approximate
08:15PM -30.0854 -71.3710 351° North  Level FlightAware Approximate
08:16PM -29.9660 -71.3919 351° North  Level FlightAware Approximate
08:17PM -29.8466 -71.4127 351° North  Level FlightAware Approximate
08:18PM -29.7272 -71.4335 351° North  Level FlightAware Approximate
08:19PM -29.6078 -71.4543 351° North  Level FlightAware Approximate
08:20PM -29.4884 -71.4750 351° North  Level FlightAware Approximate
08:21PM -29.3690 -71.4956 351° North  Level FlightAware Approximate
08:22PM -29.2496 -71.5162 351° North  Level FlightAware Approximate
08:23PM -29.1302 -71.5368 351° North  Level FlightAware Approximate
08:24PM -29.0107 -71.5573 351° North  Level FlightAware Approximate
08:25PM -28.8913 -71.5777 351° North  Level FlightAware Approximate
08:26PM -28.7719 -71.5981 351° North  Level FlightAware Approximate
08:27PM -28.6525 -71.6185 351° North  Level FlightAware Approximate
08:28PM -28.5330 -71.6388 352° North  Level FlightAware Approximate
08:29PM -28.4136 -71.6591 352° North  Level FlightAware Approximate
08:30PM -28.2941 -71.6793 352° North  Level FlightAware Approximate
08:31PM -28.1747 -71.6995 352° North  Level FlightAware Approximate
08:32PM -28.0553 -71.7196 352° North  Level FlightAware Approximate
08:33PM -27.9358 -71.7397 352° North  Level FlightAware Approximate
08:34PM -27.8164 -71.7597 352° North  Level FlightAware Approximate
08:35PM -27.6969 -71.7797 352° North  Level FlightAware Approximate
08:36PM -27.5775 -71.7997 352° North  Level FlightAware Approximate
08:37PM -27.4580 -71.8196 352° North  Level FlightAware Approximate
08:38PM -27.3385 -71.8395 352° North  Level FlightAware Approximate
08:39PM -27.2191 -71.8593 352° North  Level FlightAware Approximate
08:40PM -27.0996 -71.8791 352° North  Level FlightAware Approximate
08:41PM -26.9801 -71.8988 352° North  Level FlightAware Approximate
08:42PM -26.8607 -71.9185 352° North  Level FlightAware Approximate
08:43PM -26.7412 -71.9382 352° North  Level FlightAware Approximate
08:44PM -26.6217 -71.9578 352° North  Level FlightAware Approximate
08:45PM -26.5022 -71.9774 352° North  Level FlightAware Approximate
08:46PM -26.3827 -71.9969 352° North  Level FlightAware Approximate
08:47PM -26.2633 -72.0164 352° North  Level FlightAware Approximate
08:48PM -26.1438 -72.0358 352° North  Level FlightAware Approximate
08:49PM -26.0243 -72.0553 352° North  Level FlightAware Approximate
08:50PM -25.9048 -72.0746 352° North  Level FlightAware Approximate
08:51PM -25.7853 -72.0940 352° North  Level FlightAware Approximate
08:52PM -25.6658 -72.1133 352° North  Level FlightAware Approximate
08:53PM -25.5463 -72.1325 352° North  Level FlightAware Approximate
08:54PM -25.4268 -72.1517 352° North  Level FlightAware Approximate
08:55PM -25.3073 -72.1709 352° North  Level FlightAware Approximate
08:56PM -25.1878 -72.1901 352° North  Level FlightAware Approximate
08:57PM -25.0683 -72.2092 352° North  Level FlightAware Approximate
08:58PM -24.9487 -72.2282 352° North  Level FlightAware Approximate
08:59PM -24.8292 -72.2473 352° North  Level FlightAware Approximate
09:00PM -24.7097 -72.2663 352° North  Level FlightAware Approximate
09:01PM -24.5902 -72.2852 352° North  Level FlightAware Approximate
09:02PM -24.4707 -72.3042 352° North  Level FlightAware Approximate
09:03PM -24.3511 -72.3231 352° North  Level FlightAware Approximate
09:04PM -24.2322 -72.3418 352° North  Level FlightAware Approximate
09:05PM -24.1133 -72.3605 352° North  Level FlightAware Approximate
09:06PM -23.9944 -72.3792 352° North  Level FlightAware Approximate
09:07PM -23.8755 -72.3979 352° North  Level FlightAware Approximate
09:08PM -23.7566 -72.4165 352° North  Level FlightAware Approximate
09:09PM -23.6376 -72.4351 352° North  Level FlightAware Approximate
09:10PM -23.5187 -72.4536 352° North  Level FlightAware Approximate
09:11PM -23.3998 -72.4721 352° North  Level FlightAware Approximate
09:12PM -23.2809 -72.4906 352° North  Level FlightAware Approximate
09:13PM -23.1619 -72.5090 352° North  Level FlightAware Approximate
09:14PM -23.0430 -72.5275 352° North  Level FlightAware Approximate
09:15PM -22.9241 -72.5458 352° North  Level FlightAware Approximate
09:16PM -22.8051 -72.5642 352° North  Level FlightAware Approximate
09:17PM -22.6862 -72.5825 352° North  Level FlightAware Approximate
09:18PM -22.5673 -72.6008 352° North  Level FlightAware Approximate
09:19PM -22.4483 -72.6191 352° North  Level FlightAware Approximate
09:20PM -22.3294 -72.6373 352° North  Level FlightAware Approximate
09:21PM -22.2104 -72.6555 352° North  Level FlightAware Approximate
09:22PM -22.0915 -72.6736 352° North  Level FlightAware Approximate
09:23PM -21.9725 -72.6918 352° North  Level FlightAware Approximate
09:24PM -21.8536 -72.7099 352° North  Level FlightAware Approximate
09:25PM -21.7346 -72.7279 352° North  Level FlightAware Approximate
09:26PM -21.6157 -72.7460 352° North  Level FlightAware Approximate
09:27PM -21.4967 -72.7640 352° North  Level FlightAware Approximate
09:28PM -21.3778 -72.7820 352° North  Level FlightAware Approximate
09:29PM -21.2588 -72.7999 352° North  Level FlightAware Approximate
09:30PM -21.1398 -72.8178 352° North  Level FlightAware Approximate
09:31PM -21.0209 -72.8357 352° North  Level FlightAware Approximate
09:32PM -20.9019 -72.8536 352° North  Level FlightAware Approximate
09:33PM -20.7829 -72.8714 352° North  Level FlightAware Approximate
09:34PM -20.6640 -72.8893 352° North  Level FlightAware Approximate
09:35PM -20.5450 -72.9070 352° North  Level FlightAware Approximate
09:36PM -20.4260 -72.9248 352° North  Level FlightAware Approximate
09:37PM -20.3071 -72.9425 352° North  Level FlightAware Approximate
09:38PM -20.1881 -72.9602 352° North  Level FlightAware Approximate
09:39PM -20.0691 -72.9779 352° North  Level FlightAware Approximate
09:40PM -19.9501 -72.9955 352° North  Level FlightAware Approximate
09:41PM -19.8311 -73.0132 352° North  Level FlightAware Approximate
09:42PM -19.7122 -73.0307 352° North  Level FlightAware Approximate
09:43PM -19.5932 -73.0483 352° North  Level FlightAware Approximate
09:44PM -19.4742 -73.0658 352° North  Level FlightAware Approximate
09:45PM -19.3552 -73.0834 352° North  Level FlightAware Approximate
09:46PM -19.2362 -73.1009 352° North  Level FlightAware Approximate
09:47PM -19.1172 -73.1183 352° North  Level FlightAware Approximate
09:48PM -18.9982 -73.1358 352° North  Level FlightAware Approximate
09:49PM -18.8792 -73.1532 352° North  Level FlightAware Approximate
09:50PM -18.7602 -73.1706 352° North  Level FlightAware Approximate
09:51PM -18.6412 -73.1879 352° North  Level FlightAware Approximate
09:52PM -18.5222 -73.2053 352° North  Level FlightAware Approximate
09:53PM -18.4032 -73.2226 352° North  Level FlightAware Approximate
09:54PM -18.2842 -73.2399 352° North  Level FlightAware Approximate
09:55PM -18.1652 -73.2571 352° North  Level FlightAware Approximate
09:56PM -18.0462 -73.2744 352° North  Level FlightAware Approximate
09:57PM -17.9272 -73.2916 352° North  Level FlightAware Approximate
09:58PM -17.8082 -73.3088 352° North  Level FlightAware Approximate
09:59PM -17.6892 -73.3260 352° North  Level FlightAware Approximate
10:00PM -17.5702 -73.3431 352° North  Level FlightAware Approximate
10:01PM -17.4511 -73.3603 352° North  Level FlightAware Approximate
10:02PM -17.3321 -73.3774 352° North  Level FlightAware Approximate
10:03PM -17.2131 -73.3945 352° North  Level FlightAware Approximate
10:04PM -17.0941 -73.4115 352° North  Level FlightAware Approximate
10:05PM -16.9750 -73.4286 352° North  Level FlightAware Approximate
10:06PM -16.8560 -73.4456 352° North  Level FlightAware Approximate
10:07PM -16.7370 -73.4626 352° North  Level FlightAware Approximate
10:08PM -16.6180 -73.4796 352° North  Level FlightAware Approximate
10:09PM -16.4990 -73.4965 352° North  Level FlightAware Approximate
10:10PM -16.3799 -73.5135 352° North  Level FlightAware Approximate
10:11PM -16.2609 -73.5304 352° North  Level FlightAware Approximate
10:12PM -16.1419 -73.5473 352° North  Level FlightAware Approximate
10:13PM -16.0228 -73.5642 352° North  Level FlightAware Approximate
10:14PM -15.9038 -73.5810 352° North  Level FlightAware Approximate
10:15PM -15.7848 -73.5978 352° North  Level FlightAware Approximate
10:16PM -15.6657 -73.6147 352° North  Level FlightAware Approximate
10:17PM -15.5467 -73.6315 352° North  Level FlightAware Approximate
10:18PM -15.4277 -73.6482 352° North  Level FlightAware Approximate
10:19PM -15.3086 -73.6650 352° North  Level FlightAware Approximate
10:20PM -15.1896 -73.6817 352° North  Level FlightAware Approximate
10:21PM -15.0705 -73.6985 352° North  Level FlightAware Approximate
10:22PM -14.9515 -73.7152 352° North  Level FlightAware Approximate
10:23PM -14.8325 -73.7318 352° North  Level FlightAware Approximate
10:24PM -14.7134 -73.7485 352° North  Level FlightAware Approximate
10:25PM -14.5944 -73.7652 352° North  Level FlightAware Approximate
10:26PM -14.4753 -73.7818 352° North  Level FlightAware Approximate
10:27PM -14.3563 -73.7984 352° North  Level FlightAware Approximate
10:28PM -14.2372 -73.8150 352° North  Level FlightAware Approximate
10:29PM -14.1182 -73.8316 352° North  Level FlightAware Approximate
10:30PM -13.9991 -73.8481 352° North  Level FlightAware Approximate
10:31PM -13.8801 -73.8647 352° North  Level FlightAware Approximate
10:32PM -13.7610 -73.8812 352° North  Level FlightAware Approximate
10:33PM -13.6419 -73.8977 352° North  Level FlightAware Approximate
10:34PM -13.5235 -73.9141 352° North  Level FlightAware Approximate
10:35PM -13.4051 -73.9305 352° North  Level FlightAware Approximate
10:36PM -13.2866 -73.9469 352° North  Level FlightAware Approximate
10:37PM -13.1682 -73.9632 352° North  Level FlightAware Approximate
10:38PM -13.0497 -73.9796 352° North  Level FlightAware Approximate
10:39PM -12.9313 -73.9959 352° North  Level FlightAware Approximate
10:40PM -12.8128 -74.0122 352° North  Level FlightAware Approximate
10:41PM -12.6944 -74.0285 352° North  Level FlightAware Approximate
10:42PM -12.5759 -74.0447 352° North  Level FlightAware Approximate
10:43PM -12.4575 -74.0610 352° North  Level FlightAware Approximate
10:44PM -12.3390 -74.0773 352° North  Level FlightAware Approximate
10:45PM -12.2206 -74.0935 352° North  Level FlightAware Approximate
10:46PM -12.1021 -74.1097 352° North  Level FlightAware Approximate
10:47PM -11.9837 -74.1259 352° North  Level FlightAware Approximate
10:48PM -11.8652 -74.1421 352° North  Level FlightAware Approximate
10:49PM -11.7467 -74.1583 352° North  Level FlightAware Approximate
10:50PM -11.6283 -74.1745 352° North  Level FlightAware Approximate
10:51PM -11.5098 -74.1906 352° North  Level FlightAware Approximate
10:52PM -11.3913 -74.2067 352° North  Level FlightAware Approximate
10:53PM -11.2729 -74.2229 352° North  Level FlightAware Approximate
10:54PM -11.1544 -74.2390 352° North  Level FlightAware Approximate
10:55PM -11.0360 -74.2551 352° North  Level FlightAware Approximate
10:56PM -10.9175 -74.2711 352° North  Level FlightAware Approximate
10:57PM -10.7990 -74.2872 352° North  Level FlightAware Approximate
10:58PM -10.6806 -74.3033 352° North  Level FlightAware Approximate
10:59PM -10.5621 -74.3193 352° North  Level FlightAware Approximate
11:00PM -10.4436 -74.3354 352° North  Level FlightAware Approximate
11:01PM -10.3252 -74.3514 352° North  Level FlightAware Approximate
11:02PM -10.2067 -74.3674 352° North  Level FlightAware Approximate
11:03PM -10.0882 -74.3834 352° North  Level FlightAware Approximate
11:04PM -9.9698 -74.3994 352° North  Level FlightAware Approximate
11:05PM -9.8513 -74.4153 352° North  Level FlightAware Approximate
11:06PM -9.7328 -74.4313 352° North  Level FlightAware Approximate
11:07PM -9.6143 -74.4472 352° North  Level FlightAware Approximate
11:08PM -9.4959 -74.4632 352° North  Level FlightAware Approximate
11:09PM -9.3774 -74.4791 352° North  Level FlightAware Approximate
11:10PM -9.2589 -74.4950 352° North  Level FlightAware Approximate
11:11PM -9.1404 -74.5109 352° North  Level FlightAware Approximate
11:12PM -9.0220 -74.5268 352° North  Level FlightAware Approximate
11:13PM -8.9035 -74.5427 352° North  Level FlightAware Approximate
11:14PM -8.7850 -74.5586 352° North  Level FlightAware Approximate
11:15PM -8.6665 -74.5745 352° North  Level FlightAware Approximate
11:16PM -8.5480 -74.5903 352° North  Level FlightAware Approximate
11:17PM -8.4296 -74.6062 352° North  Level FlightAware Approximate
11:18PM -8.3111 -74.6220 352° North  Level FlightAware Approximate
11:19PM -8.1926 -74.6378 352° North  Level FlightAware Approximate
11:20PM -8.0741 -74.6536 352° North  Level FlightAware Approximate
11:21PM -7.9556 -74.6695 352° North  Level FlightAware Approximate
11:22PM -7.8372 -74.6853 352° North  Level FlightAware Approximate
11:23PM -7.7187 -74.7010 352° North  Level FlightAware Approximate
11:24PM -7.6002 -74.7168 352° North  Level FlightAware Approximate
11:25PM -7.4817 -74.7326 352° North  Level FlightAware Approximate
11:26PM -7.3632 -74.7484 352° North  Level FlightAware Approximate
11:27PM -7.2447 -74.7641 352° North  Level FlightAware Approximate
11:28PM -7.1262 -74.7799 352° North  Level FlightAware Approximate
11:29PM -7.0078 -74.7956 352° North  Level FlightAware Approximate
11:30PM -6.8893 -74.8113 352° North  Level FlightAware Approximate
11:31PM -6.7708 -74.8270 352° North  Level FlightAware Approximate
11:32PM -6.6523 -74.8428 352° North  Level FlightAware Approximate
11:33PM -6.5338 -74.8585 352° North  Level FlightAware Approximate
11:34PM -6.4153 -74.8742 352° North  Level FlightAware Approximate
11:35PM -6.2968 -74.8899 353° North  Level FlightAware Approximate
11:36PM -6.1783 -74.9055 353° North  Level FlightAware Approximate
11:37PM -6.0598 -74.9212 353° North  Level FlightAware Approximate
11:38PM -5.9413 -74.9369 353° North  Level FlightAware Approximate
11:39PM -5.8229 -74.9526 353° North  Level FlightAware Approximate
11:40PM -5.7044 -74.9682 353° North  Level FlightAware Approximate
11:41PM -5.5859 -74.9839 353° North  Level FlightAware Approximate
11:42PM -5.4674 -74.9995 353° North  Level FlightAware Approximate
11:43PM -5.3489 -75.0151 353° North  Level FlightAware Approximate
11:44PM -5.2304 -75.0308 353° North  Level FlightAware Approximate
11:45PM -5.1123 -75.0463 353° North  Level FlightAware Approximate
11:46PM -4.9942 -75.0619 353° North  Level FlightAware Approximate
11:47PM -4.8761 -75.0775 353° North  Level FlightAware Approximate
11:48PM -4.7580 -75.0930 353° North  Level FlightAware Approximate
11:49PM -4.6400 -75.1086 353° North  Level FlightAware Approximate
11:50PM -4.5219 -75.1241 353° North  Level FlightAware Approximate
11:51PM -4.4038 -75.1397 353° North  Level FlightAware Approximate
11:52PM -4.2857 -75.1552 353° North  Level FlightAware Approximate
11:53PM -4.1676 -75.1707 353° North  Level FlightAware Approximate
11:54PM -4.0495 -75.1863 353° North  Level FlightAware Approximate
11:55PM -3.9314 -75.2018 353° North  Level FlightAware Approximate
11:56PM -3.8133 -75.2173 353° North  Level FlightAware Approximate
11:57PM -3.6952 -75.2328 353° North  Level FlightAware Approximate
11:58PM -3.5772 -75.2483 353° North  Level FlightAware Approximate
11:59PM -3.4591 -75.2638 353° North  Level FlightAware Approximate
12:00AM -3.3410 -75.2793 353° North  Level FlightAware Approximate
12:01AM -3.2229 -75.2948 353° North  Level FlightAware Approximate
12:02AM -3.1048 -75.3103 353° North  Level FlightAware Approximate
12:03AM -2.9867 -75.3258 353° North  Level FlightAware Approximate
12:04AM -2.8686 -75.3413 353° North  Level FlightAware Approximate
12:05AM -2.7505 -75.3568 353° North  Level FlightAware Approximate
12:06AM -2.6324 -75.3723 353° North  Level FlightAware Approximate
12:07AM -2.5143 -75.3877 353° North  Level FlightAware Approximate
12:08AM -2.3963 -75.4032 353° North  Level FlightAware Approximate
12:09AM -2.2782 -75.4187 353° North  Level FlightAware Approximate
12:10AM -2.1601 -75.4342 353° North  Level FlightAware Approximate
12:11AM -2.0420 -75.4496 353° North  Level FlightAware Approximate
12:12AM -1.9239 -75.4651 353° North  Level FlightAware Approximate
12:13AM -1.8058 -75.4805 353° North  Level FlightAware Approximate
12:14AM -1.6877 -75.4960 353° North  Level FlightAware Approximate
12:15AM -1.5696 -75.5115 353° North  Level FlightAware Approximate
12:16AM -1.4515 -75.5269 353° North  Level FlightAware Approximate
12:17AM -1.3334 -75.5424 353° North  Level FlightAware Approximate
12:18AM -1.2153 -75.5578 353° North  Level FlightAware Approximate
12:19AM -1.0972 -75.5733 353° North  Level FlightAware Approximate
12:20AM -0.9791 -75.5887 353° North  Level FlightAware Approximate
12:21AM -0.8610 -75.6042 353° North  Level FlightAware Approximate
12:22AM -0.7429 -75.6196 353° North  Level FlightAware Approximate
12:23AM -0.6248 -75.6351 353° North  Level FlightAware Approximate
12:24AM -0.5067 -75.6505 353° North  Level FlightAware Approximate
12:25AM -0.3886 -75.6660 353° North  Level FlightAware Approximate
12:26AM -0.2705 -75.6814 353° North  Level FlightAware Approximate
12:27AM -0.1524 -75.6969 353° North  Level FlightAware Approximate
12:28AM -0.0343 -75.7123 353° North  Level FlightAware Approximate
12:29AM 0.0838 -75.7278 353° North  Level FlightAware Approximate
12:30AM 0.2019 -75.7432 353° North  Level FlightAware Approximate
12:31AM 0.3200 -75.7587 353° North  Level FlightAware Approximate
12:32AM 0.4381 -75.7741 353° North  Level FlightAware Approximate
12:33AM 0.5562 -75.7896 353° North  Level FlightAware Approximate
12:34AM 0.6743 -75.8050 353° North  Level FlightAware Approximate
12:35AM 0.7924 -75.8205 353° North  Level FlightAware Approximate
12:36AM 0.9105 -75.8359 353° North  Level FlightAware Approximate
12:37AM 1.0286 -75.8514 353° North  Level FlightAware Approximate
12:38AM 1.1467 -75.8668 353° North  Level FlightAware Approximate
12:39AM 1.2648 -75.8823 353° North  Level FlightAware Approximate
12:40AM 1.3829 -75.8977 353° North  Level FlightAware Approximate
12:41AM 1.5010 -75.9132 353° North  Level FlightAware Approximate
12:42AM 1.6191 -75.9286 353° North  Level FlightAware Approximate
12:43AM 1.7372 -75.9441 353° North  Level FlightAware Approximate
12:44AM 1.8553 -75.9596 353° North  Level FlightAware Approximate
12:45AM 1.9734 -75.9750 353° North  Level FlightAware Approximate
12:46AM 2.0915 -75.9905 353° North  Level FlightAware Approximate
12:47AM 2.2096 -76.0060 353° North  Level FlightAware Approximate
12:48AM 2.3277 -76.0214 353° North  Level FlightAware Approximate
12:49AM 2.4458 -76.0369 353° North  Level FlightAware Approximate
12:50AM 2.5639 -76.0524 353° North  Level FlightAware Approximate
12:51AM 2.6816 -76.0678 353° North  Level FlightAware Approximate
12:52AM 2.7993 -76.0832 353° North  Level FlightAware Approximate
12:53AM 2.9169 -76.0988 352° North  Level FlightAware Approximate
12:54AM 3.0346 -76.1145 352° North  Level FlightAware Approximate
12:55AM 3.1522 -76.1301 352° North  Level FlightAware Approximate
12:56AM 3.2699 -76.1457 352° North  Level FlightAware Approximate
12:57AM 3.3876 -76.1613 352° North  Level FlightAware Approximate
12:58AM 3.5052 -76.1770 352° North  Level FlightAware Approximate
12:59AM 3.6229 -76.1926 352° North  Level FlightAware Approximate
01:00AM 3.7406 -76.2083 352° North  Level FlightAware Approximate
01:01AM 3.8582 -76.2239 352° North  Level FlightAware Approximate
01:02AM 3.9759 -76.2396 352° North  Level FlightAware Approximate
01:03AM 4.0936 -76.2552 352° North  Level FlightAware Approximate
01:04AM 4.2112 -76.2709 352° North  Level FlightAware Approximate
01:05AM 4.3289 -76.2866 352° North  Level FlightAware Approximate
01:06AM 4.4465 -76.3022 352° North  Level FlightAware Approximate
01:07AM 4.5642 -76.3179 352° North  Level FlightAware Approximate
01:08AM 4.6819 -76.3336 352° North  Level FlightAware Approximate
01:09AM 4.7995 -76.3493 352° North  Level FlightAware Approximate
01:10AM 4.9172 -76.3650 352° North  Level FlightAware Approximate
01:11AM 5.0349 -76.3807 352° North  Level FlightAware Approximate
01:12AM 5.1525 -76.3964 352° North  Level FlightAware Approximate
01:13AM 5.2702 -76.4121 352° North  Level FlightAware Approximate
01:14AM 5.3878 -76.4278 352° North  Level FlightAware Approximate
01:15AM 5.5055 -76.4435 352° North  Level FlightAware Approximate
01:16AM 5.6231 -76.4592 352° North  Level FlightAware Approximate
01:17AM 5.7408 -76.4750 352° North  Level FlightAware Approximate
01:18AM 5.8585 -76.4907 352° North  Level FlightAware Approximate
01:19AM 5.9761 -76.5064 352° North  Level FlightAware Approximate
01:20AM 6.0938 -76.5222 352° North  Level FlightAware Approximate
01:21AM 6.2115 -76.5379 352° North  Level FlightAware Approximate
01:22AM 6.3291 -76.5537 352° North  Level FlightAware Approximate
01:23AM 6.4468 -76.5695 352° North  Level FlightAware Approximate
01:24AM 6.5644 -76.5852 353° North  Level FlightAware Approximate
01:25AM 6.6821 -76.6008 353° North  Level FlightAware Approximate
01:26AM 6.7998 -76.6164 353° North  Level FlightAware Approximate
01:27AM 6.9175 -76.6320 353° North  Level FlightAware Approximate
01:28AM 7.0352 -76.6475 353° North  Level FlightAware Approximate
01:29AM 7.1528 -76.6631 353° North  Level FlightAware Approximate
01:30AM 7.2705 -76.6787 353° North  Level FlightAware Approximate
01:31AM 7.3882 -76.6943 353° North  Level FlightAware Approximate
01:32AM 7.5059 -76.7100 353° North  Level FlightAware Approximate
01:33AM 7.6236 -76.7256 353° North  Level FlightAware Approximate
01:34AM 7.7412 -76.7412 353° North  Level FlightAware Approximate
01:35AM 7.8589 -76.7568 352° North  Level FlightAware Approximate
01:36AM 7.9766 -76.7725 352° North  Level FlightAware Approximate
01:37AM 8.0943 -76.7881 352° North  Level FlightAware Approximate
01:38AM 8.2120 -76.8038 352° North  Level FlightAware Approximate
01:39AM 8.3296 -76.8195 352° North  Level FlightAware Approximate
01:40AM 8.4473 -76.8352 352° North  Level FlightAware Approximate
01:41AM 8.5650 -76.8509 352° North  Level FlightAware Approximate
01:42AM 8.6827 -76.8666 352° North  Level FlightAware Approximate
01:43AM 8.8004 -76.8823 352° North  Level FlightAware Approximate
01:44AM 8.9180 -76.8980 352° North  Level FlightAware Approximate
01:45AM 9.0357 -76.9137 352° North  Level FlightAware Approximate
01:46AM 9.1532 -76.9294 352° North  Level FlightAware Approximate
01:47AM 9.2707 -76.9451 352° North  Level FlightAware Approximate
01:48AM 9.3881 -76.9609 352° North  Level FlightAware Approximate
01:49AM 9.5056 -76.9766 352° North  Level FlightAware Approximate
01:50AM 9.6231 -76.9923 352° North  Level FlightAware Approximate
01:51AM 9.7406 -77.0081 352° North  Level FlightAware Approximate
01:52AM 9.8580 -77.0239 352° North  Level FlightAware Approximate
01:53AM 9.9755 -77.0397 352° North  Level FlightAware Approximate
01:54AM 10.0930 -77.0555 352° North  Level FlightAware Approximate
01:55AM 10.2104 -77.0713 352° North  Level FlightAware Approximate
01:56AM 10.3279 -77.0872 352° North  Level FlightAware Approximate
01:57AM 10.4453 -77.1037 352° North  Level FlightAware Approximate
01:58AM 10.5626 -77.1201 352° North  Level FlightAware Approximate
01:59AM 10.6800 -77.1366 352° North  Level FlightAware Approximate
02:00AM 10.7974 -77.1530 352° North  Level FlightAware Approximate
02:01AM 10.9148 -77.1695 352° North  Level FlightAware Approximate
02:02AM 11.0322 -77.1860 352° North  Level FlightAware Approximate
02:03AM 11.1496 -77.2025 352° North  Level FlightAware Approximate
02:04AM 11.2669 -77.2190 352° North  Level FlightAware Approximate
02:05AM 11.3844 -77.2349 352° North  Level FlightAware Approximate
02:06AM 11.5019 -77.2509 352° North  Level FlightAware Approximate
02:07AM 11.6193 -77.2669 352° North  Level FlightAware Approximate
02:08AM 11.7368 -77.2829 352° North  Level FlightAware Approximate
02:09AM 11.8542 -77.2989 352° North  Level FlightAware Approximate
02:10AM 11.9717 -77.3149 352° North  Level FlightAware Approximate
02:11AM 12.0891 -77.3309 352° North  Level FlightAware Approximate
02:12AM 12.2066 -77.3470 352° North  Level FlightAware Approximate
02:13AM 12.3240 -77.3631 352° North  Level FlightAware Approximate
02:14AM 12.4415 -77.3791 352° North  Level FlightAware Approximate
02:15AM 12.5589 -77.3952 352° North  Level FlightAware Approximate
02:16AM 12.6764 -77.4113 352° North  Level FlightAware Approximate
02:17AM 12.7938 -77.4275 352° North  Level FlightAware Approximate
02:18AM 12.9113 -77.4436 352° North  Level FlightAware Approximate
02:19AM 13.0287 -77.4597 352° North  Level FlightAware Approximate
02:20AM 13.1461 -77.4759 352° North  Level FlightAware Approximate
02:21AM 13.2636 -77.4921 352° North  Level FlightAware Approximate
02:22AM 13.3810 -77.5083 352° North  Level FlightAware Approximate
02:23AM 13.4985 -77.5245 352° North  Level FlightAware Approximate
02:24AM 13.6159 -77.5407 352° North  Level FlightAware Approximate
02:25AM 13.7333 -77.5570 352° North  Level FlightAware Approximate
02:26AM 13.8508 -77.5733 352° North  Level FlightAware Approximate
02:27AM 13.9682 -77.5895 352° North  Level FlightAware Approximate
02:28AM 14.0857 -77.6058 352° North  Level FlightAware Approximate
02:29AM 14.2031 -77.6222 352° North  Level FlightAware Approximate
02:30AM 14.3205 -77.6385 352° North  Level FlightAware Approximate
02:31AM 14.4379 -77.6548 352° North  Level FlightAware Approximate
02:32AM 14.5554 -77.6712 352° North  Level FlightAware Approximate
02:33AM 14.6728 -77.6876 352° North  Level FlightAware Approximate
02:34AM 14.7902 -77.7040 352° North  Level FlightAware Approximate
02:35AM 14.9077 -77.7204 352° North  Level FlightAware Approximate
02:36AM 15.0251 -77.7368 352° North  Level FlightAware Approximate
02:37AM 15.1425 -77.7532 352° North  Level FlightAware Approximate
02:38AM 15.2599 -77.7697 352° North  Level FlightAware Approximate
02:39AM 15.3774 -77.7861 352° North  Level FlightAware Approximate
02:40AM 15.4948 -77.8026 352° North  Level FlightAware Approximate
02:41AM 15.6122 -77.8190 352° North  Level FlightAware Approximate
02:42AM 15.7296 -77.8355 352° North  Level FlightAware Approximate
02:43AM 15.8471 -77.8521 352° North  Level FlightAware Approximate
02:44AM 15.9645 -77.8686 352° North  Level FlightAware Approximate
02:45AM 16.0819 -77.8851 352° North  Level FlightAware Approximate
02:46AM 16.1993 -77.9017 352° North  Level FlightAware Approximate
02:47AM 16.3167 -77.9183 352° North  Level FlightAware Approximate
02:48AM 16.4342 -77.9349 352° North  Level FlightAware Approximate
02:49AM 16.5516 -77.9515 352° North  Level FlightAware Approximate
02:50AM 16.6690 -77.9682 352° North  Level FlightAware Approximate
02:51AM 16.7864 -77.9849 352° North  Level FlightAware Approximate
02:52AM 16.9038 -78.0016 352° North  Level FlightAware Approximate
02:53AM 17.0212 -78.0183 352° North  Level FlightAware Approximate
02:54AM 17.1386 -78.0350 352° North  Level FlightAware Approximate
02:55AM 17.2561 -78.0518 352° North  Level FlightAware Approximate
02:56AM 17.3735 -78.0686 352° North  Level FlightAware Approximate
02:57AM 17.4909 -78.0854 352° North  Level FlightAware Approximate
02:58AM 17.6083 -78.1022 352° North  Level FlightAware Approximate
02:59AM 17.7257 -78.1190 352° North  Level FlightAware Approximate
03:00AM 17.8431 -78.1359 352° North  Level FlightAware Approximate
03:01AM 17.9605 -78.1528 352° North  Level FlightAware Approximate
03:02AM 18.0779 -78.1697 352° North  Level FlightAware Approximate
03:03AM 18.1953 -78.1866 352° North  Level FlightAware Approximate
03:04AM 18.3127 -78.2036 352° North  Level FlightAware Approximate
03:05AM 18.4300 -78.2206 352° North  Level FlightAware Approximate
03:06AM 18.5474 -78.2376 352° North  Level FlightAware Approximate
03:07AM 18.6648 -78.2546 352° North  Level FlightAware Approximate
03:08AM 18.7822 -78.2717 352° North  Level FlightAware Approximate
03:09AM 18.8996 -78.2887 352° North  Level FlightAware Approximate
03:10AM 19.0170 -78.3058 352° North  Level FlightAware Approximate
03:11AM 19.1344 -78.3230 352° North  Level FlightAware Approximate
03:12AM 19.2518 -78.3401 352° North  Level FlightAware Approximate
03:13AM 19.3691 -78.3573 352° North  Level FlightAware Approximate
03:14AM 19.4865 -78.3745 352° North  Level FlightAware Approximate
03:15AM 19.6039 -78.3917 352° North  Level FlightAware Approximate
03:16AM 19.7213 -78.4089 352° North  Level FlightAware Approximate
03:17AM 19.8386 -78.4262 352° North  Level FlightAware Approximate
03:18AM 19.9560 -78.4435 352° North  Level FlightAware Approximate
03:19AM 20.0734 -78.4610 352° North  Level FlightAware Approximate
03:20AM 20.1907 -78.4786 352° North  Level FlightAware Approximate
03:21AM 20.3080 -78.4963 352° North  Level FlightAware Approximate
03:22AM 20.4254 -78.5140 352° North  Level FlightAware Approximate
03:23AM 20.5427 -78.5317 352° North  Level FlightAware Approximate
03:24AM 20.6600 -78.5494 352° North  Level FlightAware Approximate
03:25AM 20.7773 -78.5672 352° North  Level FlightAware Approximate
03:26AM 20.8946 -78.5850 352° North  Level FlightAware Approximate
03:27AM 21.0120 -78.6028 352° North  Level FlightAware Approximate
03:28AM 21.1293 -78.6206 352° North  Level FlightAware Approximate
03:29AM 21.2466 -78.6385 352° North  Level FlightAware Approximate
03:30AM 21.3639 -78.6564 352° North  Level FlightAware Approximate
03:31AM 21.4812 -78.6743 352° North  Level FlightAware Approximate
03:32AM 21.5985 -78.6923 352° North  Level FlightAware Approximate
03:33AM 21.7159 -78.7103 352° North  Level FlightAware Approximate
03:34AM 21.8332 -78.7283 352° North  Level FlightAware Approximate
03:35AM 21.9505 -78.7463 352° North  Level FlightAware Approximate
03:36AM 22.0678 -78.7644 352° North  Level FlightAware Approximate
03:37AM 22.1851 -78.7825 352° North  Level FlightAware Approximate
03:38AM 22.3024 -78.8006 352° North  Level FlightAware Approximate
03:39AM 22.4247 -78.8196 352° North  Level FlightAware Approximate
03:40AM 22.5470 -78.8386 352° North  Level FlightAware Approximate
03:41AM 22.6693 -78.8576 352° North  Level FlightAware Approximate
03:42AM 22.7916 -78.8766 352° North  Level FlightAware Approximate
03:43AM 22.9139 -78.8957 352° North  Level FlightAware Approximate
03:44AM 23.0362 -78.9148 352° North  Level FlightAware Approximate
03:45AM 23.1585 -78.9340 352° North  Level FlightAware Approximate
03:46AM 23.2808 -78.9531 352° North  Level FlightAware Approximate
03:47AM 23.4030 -78.9724 352° North  Level FlightAware Approximate
03:48AM 23.5253 -78.9916 352° North  Level FlightAware Approximate
03:49AM 23.6476 -79.0109 352° North  Level FlightAware Approximate
03:50AM 23.7699 -79.0302 352° North  Level FlightAware Approximate
03:51AM 23.8922 -79.0496 352° North  Level FlightAware Approximate
03:52AM 24.0108 -79.0775 318° Northwest  Level FlightAware Approximate
03:53AM 24.1119 -79.1546 328° Northwest  Level FlightAware Approximate
03:54AM 24.2162 -79.2272 328° Northwest  Level FlightAware Approximate
03:55AM 24.3204 -79.2999 328° Northwest  Level FlightAware Approximate
03:56AM 24.4247 -79.3728 328° Northwest  Level FlightAware Approximate
03:57AM 24.5289 -79.4457 328° Northwest  Level FlightAware Approximate
03:58AM 24.6330 -79.5188 327° Northwest  Level FlightAware Approximate
03:59AM 24.7371 -79.5920 327° Northwest  Level FlightAware Approximate
04:00AM 24.8412 -79.6654 327° Northwest  Level FlightAware Approximate
04:01AM 24.9459 -79.7377 328° Northwest  Level FlightAware Approximate
04:02AM 25.0508 -79.8098 328° Northwest  Level FlightAware Approximate
04:03AM 25.1548 -79.8833 325° Northwest  Level FlightAware Approximate
04:04AM 25.2559 -79.9619 325° Northwest  Level FlightAware Approximate
04:05AM 25.3600 -80.0354 328° Northwest  Level FlightAware Approximate
04:06AM 25.4652 -80.1071 328° Northwest  Level FlightAware Approximate
04:07AM 25.5704 -80.1789 328° Northwest  Level FlightAware Approximate
04:08AM 25.6749 -80.2520 326° Northwest  Level FlightAware Approximate
04:08AM 23.2572 -79.0864 14° North 465 535 38,000  Level Miami Center
04:09AM 25.7773 -80.3288 326° Northwest  Level FlightAware Approximate
04:09AM 23.3867 -79.0864 360° North 465 535 38,000  Level Miami Center
04:10AM 25.8965 -80.3058 14° North  Level FlightAware Approximate
04:10AM 23.5058 -79.0839 North 452 520 38,000  Level Miami Center
04:11AM 26.0161 -80.2717 14° North  Level FlightAware Approximate
04:11AM 23.6292 -79.0792 North 436 502 38,000  Level Miami Center
04:12AM 26.1358 -80.2374 14° North  Level FlightAware Approximate
04:12AM 23.7483 -79.0789 360° North 429 494 38,000  Level Miami Center
04:13AM 26.2555 -80.2033 14° North  Level FlightAware Approximate
04:13AM 23.8694 -79.0742 North 429 494 38,000  Level Miami Center
04:14AM 23.9906 -79.0786 358° North 429 494 38,000  Level Miami Center
04:15AM 24.0942 -79.1397 332° Northwest 417 480 38,000  Level Miami Center
04:16AM 24.2022 -79.1828 340° North 410 472 38,000  Level Miami Center
04:17AM 24.3186 -79.2189 344° North 415 478 38,000  Level Miami Center
04:18AM 24.4331 -79.2600 342° North 426 490 38,000  Level Miami Center
04:19AM 24.5453 -79.2986 343° North 426 490 38,000  Level Miami Center
04:20AM 24.6572 -79.3397 342° North 421 484 38,000  Level Miami Center
04:21AM 24.7714 -79.3808 342° North 421 484 38,000  Level Miami Center
04:22AM 24.8836 -79.4222 342° North 421 484 38,000  Level Miami Center
04:23AM 24.9958 -79.4589 344° North 421 484 38,000  Level Miami Center
04:24AM 25.1058 -79.5025 340° North 421 484 38,000  Level Miami Center
04:25AM 25.2181 -79.5417 342° North 421 484 38,000  Level Miami Center
04:26AM 25.3278 -79.5856 340° North 421 484 38,000  Level Miami Center
04:27AM 25.4400 -79.6272 341° North 421 484 38,000  Level Miami Center
04:28AM 25.5542 -79.6642 344° North 421 484 38,000  Level Miami Center
04:29AM 25.6661 -79.7083 340° North 421 484 38,000  Level Miami Center
04:30AM 25.7761 -79.7503 341° North 421 484 38,000  Level Miami Center
04:31AM 25.8942 -79.7922 342° North 421 484 38,000  Level Miami Center
04:32AM 26.0042 -79.8319 342° North 421 484 38,000  Level Miami Center
04:33AM 26.1244 -79.8767 342° North 428 493 38,000  Level Miami Center
04:34AM 26.2403 -79.9236 340° North 428 493 38,000  Level Miami Center
04:35AM 26.3647 -79.9683 342° North 433 498 38,000  Level Miami Center
04:36AM 26.4808 -80.0108 342° North 433 498 38,000  Level Miami Center
04:37AM 26.5947 -80.0558 341° North 433 498 38,000 120 Level Miami Center
04:38AM 26.7128 -80.0986 342° North 441 507 38,300 480 Climbing Miami Center
04:39AM 26.8267 -80.1414 341° North 435 501 39,000 300 Climbing Miami Center
04:40AM 26.9425 -80.1889 340° North 435 501 39,000  Level Miami Center
04:41AM 27.0586 -80.2342 341° North 435 501 39,000  Level Miami Center
04:42AM 27.1725 -80.2747 342° North 435 501 39,000  Level Miami Center
04:43AM 27.2903 -80.3203 341° North 435 501 39,000  Level Miami Center
04:44AM 27.4042 -80.3633 341° North 435 501 39,000  Level Miami Center
04:45AM 27.5200 -80.4069 342° North 440 506 39,000  Level Miami Center
04:46AM 27.6358 -80.4503 342° North 440 506 39,000  Level Miami Center
04:47AM 27.7558 -80.4961 341° North 440 506 39,000  Level Miami Center
04:48AM 27.8717 -80.5375 342° North 440 506 39,000  Level Miami Center
04:49AM 27.9894 -80.5836 341° North 440 506 39,000  Level Miami Center
04:50AM 28.1050 -80.6275 341° North 440 506 39,000  Level Miami Center
04:51AM 28.2228 -80.6739 341° North 440 506 39,000  Level Miami Center
04:53AM 28.4242 -80.7542 341° North 446 513 39,000  Level Jacksonville Center
04:54AM 28.5419 -80.7964 343° North 451 519 39,000  Level Jacksonville Center
04:55AM 28.6594 -80.8436 341° North 451 519 39,000  Level Jacksonville Center
04:56AM 28.7750 -80.8886 341° North 446 513 39,000  Level Jacksonville Center
04:57AM 28.8925 -80.9361 341° North 446 513 39,000  Level Jacksonville Center
04:58AM 29.0081 -80.9883 338° Northwest 446 513 39,000  Level Jacksonville Center
04:59AM 29.1217 -81.0458 336° Northwest 446 513 39,000  Level Jacksonville Center
05:00AM 29.2331 -81.1008 337° Northwest 439 505 39,000  Level Jacksonville Center
05:01AM 29.3467 -81.1558 337° Northwest 439 505 39,000  Level Jacksonville Center
05:02AM 29.4622 -81.2133 337° Northwest 439 505 39,000  Level Jacksonville Center
05:03AM 29.5819 -81.2783 335° Northwest 427 491 39,000  Level Jacksonville Center
05:04AM 29.6956 -81.3361 336° Northwest 433 498 39,000  Level Jacksonville Center
05:05AM 29.7983 -81.3872 337° Northwest 443 510 39,000  Level Jacksonville Center
05:06AM 29.9117 -81.4428 337° Northwest 443 510 39,000  Level Jacksonville Center
05:07AM 30.0250 -81.5011 336° Northwest 443 510 39,000  Level Jacksonville Center
05:08AM 30.1383 -81.5572 337° Northwest 443 510 39,000  Level Jacksonville Center
05:09AM 30.2539 -81.6156 336° Northwest 443 510 39,000  Level Jacksonville Center
05:10AM 30.3672 -81.6694 338° Northwest 443 510 39,000  Level Jacksonville Center
05:11AM 30.4806 -81.7331 334° Northwest 438 504 39,000  Level Jacksonville Center
05:12AM 30.5978 -81.7919 337° Northwest 445 512 39,000  Level Jacksonville Center
05:13AM 30.7111 -81.8536 335° Northwest 450 518 39,000  Level Jacksonville Center
05:14AM 30.8222 -81.9128 335° Northwest 445 512 39,000  Level Jacksonville Center
05:15AM 30.9397 -81.9722 337° Northwest 450 518 39,000  Level Jacksonville Center
05:16AM 31.0550 -82.0317 336° Northwest 450 518 39,000  Level Jacksonville Center
05:17AM 31.1681 -82.0936 335° Northwest 445 512 39,000  Level Jacksonville Center
05:18AM 31.2833 -82.1536 336° Northwest 445 512 39,000  Level Jacksonville Center
05:19AM 31.3983 -82.2136 336° Northwest 445 512 39,000  Level Jacksonville Center
05:20AM 31.6136 -82.3244 336° Northwest 464 534 39,000  Level Atlanta Center
05:21AM 31.7272 -82.3833 336° Northwest 457 526 39,000  Level Atlanta Center
05:22AM 31.8386 -82.4547 331° Northwest 457 526 39,000  Level Atlanta Center
05:23AM 31.9400 -82.5483 322° Northwest 457 526 39,000  Level Atlanta Center
05:24AM 32.0372 -82.6447 320° Northwest 457 526 39,000 -60 Level Atlanta Center
05:25AM 32.1364 -82.7389 321° Northwest 462 532 38,900 -720 Descending Atlanta Center
05:26AM 32.2356 -82.8406 319° Northwest 462 532 37,600 -1,260 Descending Atlanta Center
05:27AM 32.3344 -82.9375 320° Northwest 462 532 36,400 -1,200 Descending Atlanta Center
05:28AM 32.4314 -83.0322 320° Northwest 462 532 35,300 -1,140 Descending Atlanta Center
05:29AM 32.5300 -83.1297 320° Northwest 462 532 34,200 -1,200 Descending Atlanta Center
05:30AM 32.6289 -83.2275 320° Northwest 462 532 32,900 -2,580 Descending Atlanta Center
05:31AM 32.7275 -83.3228 321° Northwest 462 532 29,100 -3,480 Descending Atlanta Center
05:32AM 32.8325 -83.4283 320° Northwest 468 539 26,000 -3,060 Descending Atlanta Center
05:33AM 32.9333 -83.5289 320° Northwest 468 539 23,000 -3,000 Descending Atlanta Center
05:34AM 33.0317 -83.6225 321° Northwest 468 539 20,100 -2,880 Descending Atlanta Center
05:35AM 33.1111 -83.7064 319° Northwest 445 512 17,300 -2,940 Descending Atlanta Center
05:36AM 33.1833 -83.7833 318° Northwest 403 464 14,900 -1,860 Descending Atlanta TRACON
05:37AM 33.2667 -83.8833 315° West 389 448 14,000 -600 Descending Atlanta TRACON
05:38AM 33.3333 -83.9833 309° West 389 448 13,700 -1,200 Descending Atlanta TRACON
05:39AM 33.3833 -84.0833 301° West 378 435 11,600 -1,260 Descending Atlanta TRACON
05:40AM 33.4331 -84.2206 294° West 372 428 11,000 -420 Descending Atlanta Center
05:41AM 33.4703 -84.3303 292° West 372 428 10,800 -1,140 Descending Atlanta Center
05:43AM 33.5000 -84.4333 289° West 287 330 8,700 -2,160 Descending Atlanta TRACON
05:44AM 33.5333 -84.5167 296° West 286 329 6,300 -2,280 Descending Atlanta TRACON
05:44AM 33.5333 -84.5833 270° West 260 299 4,400 -1,620 Descending Atlanta TRACON
05:45AM 33.5833 -84.6333 320° Northwest 252 290 3,300 -720 Descending Atlanta TRACON
05:47AM 33.6167 -84.5833 51° Northeast 240 276 3,000 -300 Descending Atlanta TRACON